sensor_id;sensor_type;location;lat;lon;timestamp;P1;durP1;ratioP1;P2;durP2;ratioP2
49962;SDS011;36180;57.678;11.910;2024-01-15T00:01:13;61.30;;;3.70;;
49962;SDS011;36180;57.678;11.910;2024-01-15T00:03:40;31.63;;;3.47;;
49962;SDS011;36180;57.678;11.910;2024-01-15T00:06:07;96.38;;;4.82;;
49962;SDS011;36180;57.678;11.910;2024-01-15T00:08:34;44.25;;;3.70;;
49962;SDS011;36180;57.678;11.910;2024-01-15T00:11:01;39.08;;;3.63;;
49962;SDS011;36180;57.678;11.910;2024-01-15T00:13:28;52.22;;;3.90;;
49962;SDS011;36180;57.678;11.910;2024-01-15T00:15:55;29.13;;;3.20;;
49962;SDS011;36180;57.678;11.910;2024-01-15T00:18:23;30.27;;;3.10;;
49962;SDS011;36180;57.678;11.910;2024-01-15T00:20:50;23.58;;;3.25;;
49962;SDS011;36180;57.678;11.910;2024-01-15T00:23:17;42.53;;;3.65;;
49962;SDS011;36180;57.678;11.910;2024-01-15T00:25:44;23.92;;;3.28;;
49962;SDS011;36180;57.678;11.910;2024-01-15T00:28:11;34.80;;;3.83;;
49962;SDS011;36180;57.678;11.910;2024-01-15T00:30:38;47.58;;;4.00;;
49962;SDS011;36180;57.678;11.910;2024-01-15T00:33:05;19.88;;;3.17;;
49962;SDS011;36180;57.678;11.910;2024-01-15T00:35:33;9.45;;;3.60;;
49962;SDS011;36180;57.678;11.910;2024-01-15T00:38:01;7.05;;;2.85;;
49962;SDS011;36180;57.678;11.910;2024-01-15T00:40:27;8.98;;;2.88;;
49962;SDS011;36180;57.678;11.910;2024-01-15T00:42:54;11.65;;;2.97;;
49962;SDS011;36180;57.678;11.910;2024-01-15T00:45:21;9.63;;;2.65;;
49962;SDS011;36180;57.678;11.910;2024-01-15T00:47:48;6.05;;;2.63;;
49962;SDS011;36180;57.678;11.910;2024-01-15T00:50:15;13.48;;;3.08;;
49962;SDS011;36180;57.678;11.910;2024-01-15T00:52:44;14.35;;;3.22;;
49962;SDS011;36180;57.678;11.910;2024-01-15T00:55:11;8.23;;;2.83;;
49962;SDS011;36180;57.678;11.910;2024-01-15T00:57:38;4.63;;;2.70;;
49962;SDS011;36180;57.678;11.910;2024-01-15T01:00:05;13.32;;;3.40;;
49962;SDS011;36180;57.678;11.910;2024-01-15T01:02:34;13.23;;;5.00;;
49962;SDS011;36180;57.678;11.910;2024-01-15T01:05:01;16.20;;;5.28;;
49962;SDS011;36180;57.678;11.910;2024-01-15T01:07:28;10.05;;;4.80;;
49962;SDS011;36180;57.678;11.910;2024-01-15T01:09:56;9.38;;;4.43;;
49962;SDS011;36180;57.678;11.910;2024-01-15T01:12:24;10.45;;;3.47;;
49962;SDS011;36180;57.678;11.910;2024-01-15T01:14:50;10.93;;;4.70;;
49962;SDS011;36180;57.678;11.910;2024-01-15T01:17:17;14.82;;;4.13;;
49962;SDS011;36180;57.678;11.910;2024-01-15T01:19:44;13.45;;;5.20;;
49962;SDS011;36180;57.678;11.910;2024-01-15T01:22:11;22.17;;;6.40;;
49962;SDS011;36180;57.678;11.910;2024-01-15T01:24:38;17.17;;;6.85;;
49962;SDS011;36180;57.678;11.910;2024-01-15T01:27:07;16.48;;;6.72;;
49962;SDS011;36180;57.678;11.910;2024-01-15T01:29:34;16.38;;;6.03;;
49962;SDS011;36180;57.678;11.910;2024-01-15T01:32:01;17.23;;;6.05;;
49962;SDS011;36180;57.678;11.910;2024-01-15T01:34:28;13.02;;;5.28;;
49962;SDS011;36180;57.678;11.910;2024-01-15T01:36:55;11.55;;;5.00;;
49962;SDS011;36180;57.678;11.910;2024-01-15T01:39:22;14.27;;;5.75;;
49962;SDS011;36180;57.678;11.910;2024-01-15T01:41:49;12.63;;;5.70;;
49962;SDS011;36180;57.678;11.910;2024-01-15T01:44:18;11.55;;;4.45;;
49962;SDS011;36180;57.678;11.910;2024-01-15T01:46:45;8.13;;;3.17;;
49962;SDS011;36180;57.678;11.910;2024-01-15T01:49:12;10.88;;;3.75;;
49962;SDS011;36180;57.678;11.910;2024-01-15T01:51:39;8.93;;;3.47;;
49962;SDS011;36180;57.678;11.910;2024-01-15T01:54:06;10.45;;;4.55;;
49962;SDS011;36180;57.678;11.910;2024-01-15T01:56:34;9.05;;;3.92;;
49962;SDS011;36180;57.678;11.910;2024-01-15T01:59:02;9.98;;;3.55;;
49962;SDS011;36180;57.678;11.910;2024-01-15T02:01:30;9.68;;;3.08;;
49962;SDS011;36180;57.678;11.910;2024-01-15T02:03:58;3.53;;;2.35;;
49962;SDS011;36180;57.678;11.910;2024-01-15T02:06:25;4.03;;;2.33;;
49962;SDS011;36180;57.678;11.910;2024-01-15T02:08:52;1.83;;;1.08;;
49962;SDS011;36180;57.678;11.910;2024-01-15T02:11:19;1.08;;;0.80;;
49962;SDS011;36180;57.678;11.910;2024-01-15T02:13:46;3.08;;;0.80;;
49962;SDS011;36180;57.678;11.910;2024-01-15T02:16:13;1.10;;;0.60;;
49962;SDS011;36180;57.678;11.910;2024-01-15T02:18:43;1.80;;;0.45;;
49962;SDS011;36180;57.678;11.910;2024-01-15T02:21:10;0.40;;;0.40;;
49962;SDS011;36180;57.678;11.910;2024-01-15T02:23:39;0.40;;;0.40;;
49962;SDS011;36180;57.678;11.910;2024-01-15T02:26:06;0.50;;;0.50;;
49962;SDS011;36180;57.678;11.910;2024-01-15T02:28:34;0.50;;;0.50;;
49962;SDS011;36180;57.678;11.910;2024-01-15T02:31:01;0.50;;;0.50;;
49962;SDS011;36180;57.678;11.910;2024-01-15T02:33:27;0.55;;;0.40;;
49962;SDS011;36180;57.678;11.910;2024-01-15T02:35:55;0.95;;;0.63;;
49962;SDS011;36180;57.678;11.910;2024-01-15T02:38:22;0.60;;;0.50;;
49962;SDS011;36180;57.678;11.910;2024-01-15T02:40:50;0.95;;;0.60;;
49962;SDS011;36180;57.678;11.910;2024-01-15T02:43:17;0.60;;;0.60;;
49962;SDS011;36180;57.678;11.910;2024-01-15T02:45:45;0.47;;;0.47;;
49962;SDS011;36180;57.678;11.910;2024-01-15T02:48:12;0.80;;;0.52;;
49962;SDS011;36180;57.678;11.910;2024-01-15T02:50:39;0.57;;;0.50;;
49962;SDS011;36180;57.678;11.910;2024-01-15T02:53:06;4.10;;;0.98;;
49962;SDS011;36180;57.678;11.910;2024-01-15T02:55:33;1.58;;;0.60;;
49962;SDS011;36180;57.678;11.910;2024-01-15T02:58:03;0.98;;;0.70;;
49962;SDS011;36180;57.678;11.910;2024-01-15T03:00:30;1.13;;;0.60;;
49962;SDS011;36180;57.678;11.910;2024-01-15T03:02:57;0.40;;;0.40;;
49962;SDS011;36180;57.678;11.910;2024-01-15T03:05:24;0.45;;;0.45;;
49962;SDS011;36180;57.678;11.910;2024-01-15T03:07:51;1.00;;;0.40;;
49962;SDS011;36180;57.678;11.910;2024-01-15T03:10:18;0.90;;;0.43;;
49962;SDS011;36180;57.678;11.910;2024-01-15T03:12:45;2.05;;;0.50;;
49962;SDS011;36180;57.678;11.910;2024-01-15T03:15:13;0.82;;;0.40;;
49962;SDS011;36180;57.678;11.910;2024-01-15T03:17:41;0.95;;;0.40;;
49962;SDS011;36180;57.678;11.910;2024-01-15T03:20:09;0.52;;;0.50;;
49962;SDS011;36180;57.678;11.910;2024-01-15T03:22:36;1.25;;;0.40;;
49962;SDS011;36180;57.678;11.910;2024-01-15T03:25:06;2.50;;;0.50;;
49962;SDS011;36180;57.678;11.910;2024-01-15T03:27:33;2.13;;;0.50;;
49962;SDS011;36180;57.678;11.910;2024-01-15T03:30:00;1.55;;;0.55;;
49962;SDS011;36180;57.678;11.910;2024-01-15T03:32:29;1.50;;;1.40;;
49962;SDS011;36180;57.678;11.910;2024-01-15T03:34:56;4.80;;;0.70;;
49962;SDS011;36180;57.678;11.910;2024-01-15T03:37:23;0.73;;;0.50;;
49962;SDS011;36180;57.678;11.910;2024-01-15T03:39:50;0.73;;;0.43;;
49962;SDS011;36180;57.678;11.910;2024-01-15T03:42:17;2.65;;;0.60;;
49962;SDS011;36180;57.678;11.910;2024-01-15T03:44:44;0.90;;;0.60;;
49962;SDS011;36180;57.678;11.910;2024-01-15T03:47:11;1.13;;;0.60;;
49962;SDS011;36180;57.678;11.910;2024-01-15T03:49:39;2.75;;;0.70;;
49962;SDS011;36180;57.678;11.910;2024-01-15T03:52:06;1.75;;;0.70;;
49962;SDS011;36180;57.678;11.910;2024-01-15T03:54:33;0.93;;;0.60;;
49962;SDS011;36180;57.678;11.910;2024-01-15T03:57:00;1.40;;;1.23;;
49962;SDS011;36180;57.678;11.910;2024-01-15T03:59:27;1.63;;;1.20;;
49962;SDS011;36180;57.678;11.910;2024-01-15T04:01:54;2.35;;;1.00;;
49962;SDS011;36180;57.678;11.910;2024-01-15T04:04:21;2.38;;;0.85;;
49962;SDS011;36180;57.678;11.910;2024-01-15T04:06:49;2.38;;;0.73;;
49962;SDS011;36180;57.678;11.910;2024-01-15T04:09:16;0.98;;;0.60;;
49962;SDS011;36180;57.678;11.910;2024-01-15T04:11:43;0.43;;;0.43;;
49962;SDS011;36180;57.678;11.910;2024-01-15T04:14:10;1.67;;;0.70;;
49962;SDS011;36180;57.678;11.910;2024-01-15T04:16:37;2.80;;;0.60;;
49962;SDS011;36180;57.678;11.910;2024-01-15T04:19:04;0.95;;;0.70;;
49962;SDS011;36180;57.678;11.910;2024-01-15T04:21:31;1.05;;;0.40;;
49962;SDS011;36180;57.678;11.910;2024-01-15T04:24:00;1.98;;;0.50;;
49962;SDS011;36180;57.678;11.910;2024-01-15T04:26:27;0.75;;;0.50;;
49962;SDS011;36180;57.678;11.910;2024-01-15T04:28:54;1.50;;;0.70;;
49962;SDS011;36180;57.678;11.910;2024-01-15T04:31:21;2.03;;;0.60;;
49962;SDS011;36180;57.678;11.910;2024-01-15T04:33:49;1.42;;;0.60;;
49962;SDS011;36180;57.678;11.910;2024-01-15T04:36:16;2.55;;;0.50;;
49962;SDS011;36180;57.678;11.910;2024-01-15T04:38:43;5.50;;;0.80;;
49962;SDS011;36180;57.678;11.910;2024-01-15T04:41:12;2.45;;;0.68;;
49962;SDS011;36180;57.678;11.910;2024-01-15T04:43:39;0.93;;;0.63;;
49962;SDS011;36180;57.678;11.910;2024-01-15T04:46:07;2.72;;;0.70;;
49962;SDS011;36180;57.678;11.910;2024-01-15T04:48:34;2.65;;;0.93;;
49962;SDS011;36180;57.678;11.910;2024-01-15T04:51:01;0.57;;;0.40;;
49962;SDS011;36180;57.678;11.910;2024-01-15T04:53:30;3.58;;;0.68;;
49962;SDS011;36180;57.678;11.910;2024-01-15T04:55:57;2.38;;;0.90;;
49962;SDS011;36180;57.678;11.910;2024-01-15T04:58:26;1.15;;;0.40;;
49962;SDS011;36180;57.678;11.910;2024-01-15T05:00:53;1.65;;;0.50;;
49962;SDS011;36180;57.678;11.910;2024-01-15T05:03:20;3.33;;;0.50;;
49962;SDS011;36180;57.678;11.910;2024-01-15T05:05:47;0.80;;;0.47;;
49962;SDS011;36180;57.678;11.910;2024-01-15T05:08:14;1.80;;;0.52;;
49962;SDS011;36180;57.678;11.910;2024-01-15T05:10:41;2.33;;;0.77;;
49962;SDS011;36180;57.678;11.910;2024-01-15T05:13:08;1.35;;;0.40;;
49962;SDS011;36180;57.678;11.910;2024-01-15T05:15:36;1.25;;;0.63;;
49962;SDS011;36180;57.678;11.910;2024-01-15T05:18:04;2.28;;;0.65;;
49962;SDS011;36180;57.678;11.910;2024-01-15T05:20:31;0.82;;;0.50;;
49962;SDS011;36180;57.678;11.910;2024-01-15T05:22:58;0.70;;;0.50;;
49962;SDS011;36180;57.678;11.910;2024-01-15T05:25:25;1.30;;;0.68;;
49962;SDS011;36180;57.678;11.910;2024-01-15T05:27:52;1.92;;;0.77;;
49962;SDS011;36180;57.678;11.910;2024-01-15T05:30:19;0.68;;;0.45;;
49962;SDS011;36180;57.678;11.910;2024-01-15T05:32:47;2.58;;;0.60;;
49962;SDS011;36180;57.678;11.910;2024-01-15T05:35:14;1.15;;;0.50;;
49962;SDS011;36180;57.678;11.910;2024-01-15T05:37:42;2.28;;;0.40;;
49962;SDS011;36180;57.678;11.910;2024-01-15T05:40:10;1.45;;;0.40;;
49962;SDS011;36180;57.678;11.910;2024-01-15T05:42:37;2.67;;;0.65;;
49962;SDS011;36180;57.678;11.910;2024-01-15T05:45:05;0.82;;;0.40;;
49962;SDS011;36180;57.678;11.910;2024-01-15T05:47:32;2.17;;;0.70;;
49962;SDS011;36180;57.678;11.910;2024-01-15T05:50:01;1.20;;;0.40;;
49962;SDS011;36180;57.678;11.910;2024-01-15T05:52:28;0.60;;;0.52;;
49962;SDS011;36180;57.678;11.910;2024-01-15T05:54:55;0.77;;;0.50;;
49962;SDS011;36180;57.678;11.910;2024-01-15T05:57:24;0.93;;;0.40;;
49962;SDS011;36180;57.678;11.910;2024-01-15T05:59:50;1.20;;;0.52;;
49962;SDS011;36180;57.678;11.910;2024-01-15T06:02:18;1.58;;;0.40;;
49962;SDS011;36180;57.678;11.910;2024-01-15T06:04:45;0.65;;;0.50;;
49962;SDS011;36180;57.678;11.910;2024-01-15T06:07:13;1.80;;;0.80;;
49962;SDS011;36180;57.678;11.910;2024-01-15T06:09:40;3.08;;;1.13;;
49962;SDS011;36180;57.678;11.910;2024-01-15T06:12:07;2.25;;;0.68;;
49962;SDS011;36180;57.678;11.910;2024-01-15T06:14:35;2.10;;;0.80;;
49962;SDS011;36180;57.678;11.910;2024-01-15T06:17:03;1.95;;;1.00;;
49962;SDS011;36180;57.678;11.910;2024-01-15T06:19:30;1.70;;;0.73;;
49962;SDS011;36180;57.678;11.910;2024-01-15T06:21:57;0.88;;;0.70;;
49962;SDS011;36180;57.678;11.910;2024-01-15T06:24:25;4.05;;;0.93;;
49962;SDS011;36180;57.678;11.910;2024-01-15T06:26:52;1.83;;;0.68;;
49962;SDS011;36180;57.678;11.910;2024-01-15T06:29:19;1.52;;;0.60;;
49962;SDS011;36180;57.678;11.910;2024-01-15T06:31:46;3.08;;;0.70;;
49962;SDS011;36180;57.678;11.910;2024-01-15T06:34:14;1.10;;;0.75;;
49962;SDS011;36180;57.678;11.910;2024-01-15T06:36:42;1.02;;;0.60;;
49962;SDS011;36180;57.678;11.910;2024-01-15T06:39:09;1.92;;;0.70;;
49962;SDS011;36180;57.678;11.910;2024-01-15T06:41:37;1.15;;;0.57;;
49962;SDS011;36180;57.678;11.910;2024-01-15T06:46:35;0.88;;;0.47;;
49962;SDS011;36180;57.678;11.910;2024-01-15T06:49:02;2.78;;;0.65;;
49962;SDS011;36180;57.678;11.910;2024-01-15T06:51:29;1.88;;;0.60;;
49962;SDS011;36180;57.678;11.910;2024-01-15T06:53:56;4.07;;;0.50;;
49962;SDS011;36180;57.678;11.910;2024-01-15T06:56:23;2.55;;;1.27;;
49962;SDS011;36180;57.678;11.910;2024-01-15T06:58:51;3.15;;;0.55;;
49962;SDS011;36180;57.678;11.910;2024-01-15T07:01:18;0.73;;;0.60;;
49962;SDS011;36180;57.678;11.910;2024-01-15T07:03:45;1.13;;;0.60;;
49962;SDS011;36180;57.678;11.910;2024-01-15T07:06:12;2.92;;;0.52;;
49962;SDS011;36180;57.678;11.910;2024-01-15T07:08:39;0.43;;;0.40;;
49962;SDS011;36180;57.678;11.910;2024-01-15T07:11:07;1.48;;;0.70;;
49962;SDS011;36180;57.678;11.910;2024-01-15T07:13:34;1.40;;;0.80;;
49962;SDS011;36180;57.678;11.910;2024-01-15T07:16:04;2.15;;;0.70;;
49962;SDS011;36180;57.678;11.910;2024-01-15T07:18:31;3.45;;;0.70;;
49962;SDS011;36180;57.678;11.910;2024-01-15T07:20:58;3.47;;;0.50;;
49962;SDS011;36180;57.678;11.910;2024-01-15T07:23:26;1.55;;;0.60;;
49962;SDS011;36180;57.678;11.910;2024-01-15T07:25:53;3.67;;;0.90;;
49962;SDS011;36180;57.678;11.910;2024-01-15T07:28:20;1.85;;;0.73;;
49962;SDS011;36180;57.678;11.910;2024-01-15T07:30:47;0.63;;;0.50;;
49962;SDS011;36180;57.678;11.910;2024-01-15T07:33:15;1.67;;;0.75;;
49962;SDS011;36180;57.678;11.910;2024-01-15T07:35:42;1.05;;;0.60;;
49962;SDS011;36180;57.678;11.910;2024-01-15T07:38:09;3.47;;;0.93;;
49962;SDS011;36180;57.678;11.910;2024-01-15T07:40:37;1.25;;;0.60;;
49962;SDS011;36180;57.678;11.910;2024-01-15T07:43:04;2.03;;;0.60;;
49962;SDS011;36180;57.678;11.910;2024-01-15T07:45:31;0.95;;;0.65;;
49962;SDS011;36180;57.678;11.910;2024-01-15T07:47:58;0.45;;;0.45;;
49962;SDS011;36180;57.678;11.910;2024-01-15T07:50:26;0.28;;;0.28;;
49962;SDS011;36180;57.678;11.910;2024-01-15T07:52:53;1.70;;;0.50;;
49962;SDS011;36180;57.678;11.910;2024-01-15T07:55:20;1.52;;;0.70;;
49962;SDS011;36180;57.678;11.910;2024-01-15T07:57:47;2.00;;;0.65;;
49962;SDS011;36180;57.678;11.910;2024-01-15T08:00:14;2.80;;;0.70;;
49962;SDS011;36180;57.678;11.910;2024-01-15T08:02:42;2.50;;;0.65;;
49962;SDS011;36180;57.678;11.910;2024-01-15T08:05:09;1.30;;;0.70;;
49962;SDS011;36180;57.678;11.910;2024-01-15T08:07:37;2.08;;;0.60;;
49962;SDS011;36180;57.678;11.910;2024-01-15T08:10:04;2.55;;;0.82;;
49962;SDS011;36180;57.678;11.910;2024-01-15T08:12:32;1.65;;;0.60;;
49962;SDS011;36180;57.678;11.910;2024-01-15T08:14:59;0.82;;;0.40;;
49962;SDS011;36180;57.678;11.910;2024-01-15T08:17:26;0.93;;;0.50;;
49962;SDS011;36180;57.678;11.910;2024-01-15T08:19:54;0.77;;;0.45;;
49962;SDS011;36180;57.678;11.910;2024-01-15T08:22:22;2.92;;;0.50;;
49962;SDS011;36180;57.678;11.910;2024-01-15T08:24:50;1.15;;;0.52;;
49962;SDS011;36180;57.678;11.910;2024-01-15T08:27:17;0.88;;;0.52;;
49962;SDS011;36180;57.678;11.910;2024-01-15T08:29:45;2.78;;;0.70;;
49962;SDS011;36180;57.678;11.910;2024-01-15T08:32:12;1.80;;;0.50;;
49962;SDS011;36180;57.678;11.910;2024-01-15T08:34:40;2.58;;;0.52;;
49962;SDS011;36180;57.678;11.910;2024-01-15T08:37:08;2.05;;;0.80;;
49962;SDS011;36180;57.678;11.910;2024-01-15T08:39:35;1.10;;;0.55;;
49962;SDS011;36180;57.678;11.910;2024-01-15T08:42:05;1.00;;;0.60;;
49962;SDS011;36180;57.678;11.910;2024-01-15T08:44:33;2.53;;;0.70;;
49962;SDS011;36180;57.678;11.910;2024-01-15T08:46:59;2.20;;;0.80;;
49962;SDS011;36180;57.678;11.910;2024-01-15T08:49:28;4.53;;;0.60;;
49962;SDS011;36180;57.678;11.910;2024-01-15T08:51:55;1.15;;;0.82;;
49962;SDS011;36180;57.678;11.910;2024-01-15T08:54:22;2.72;;;0.75;;
49962;SDS011;36180;57.678;11.910;2024-01-15T08:56:49;1.75;;;0.63;;
49962;SDS011;36180;57.678;11.910;2024-01-15T08:59:17;1.08;;;0.57;;
49962;SDS011;36180;57.678;11.910;2024-01-15T09:01:49;1.80;;;0.50;;
49962;SDS011;36180;57.678;11.910;2024-01-15T09:04:16;1.42;;;0.80;;
49962;SDS011;36180;57.678;11.910;2024-01-15T09:06:44;0.90;;;0.60;;
49962;SDS011;36180;57.678;11.910;2024-01-15T09:09:12;2.05;;;0.80;;
49962;SDS011;36180;57.678;11.910;2024-01-15T09:11:39;0.93;;;0.52;;
49962;SDS011;36180;57.678;11.910;2024-01-15T09:14:06;2.80;;;0.70;;
49962;SDS011;36180;57.678;11.910;2024-01-15T09:16:35;1.90;;;0.70;;
49962;SDS011;36180;57.678;11.910;2024-01-15T09:19:03;3.15;;;0.82;;
49962;SDS011;36180;57.678;11.910;2024-01-15T09:21:30;3.70;;;0.90;;
49962;SDS011;36180;57.678;11.910;2024-01-15T09:23:57;0.50;;;0.50;;
49962;SDS011;36180;57.678;11.910;2024-01-15T09:26:24;2.58;;;0.70;;
49962;SDS011;36180;57.678;11.910;2024-01-15T09:28:51;2.15;;;0.55;;
49962;SDS011;36180;57.678;11.910;2024-01-15T09:31:18;1.17;;;0.80;;
49962;SDS011;36180;57.678;11.910;2024-01-15T09:33:49;1.75;;;0.88;;
49962;SDS011;36180;57.678;11.910;2024-01-15T09:36:21;0.85;;;0.52;;
49962;SDS011;36180;57.678;11.910;2024-01-15T09:38:48;2.00;;;0.63;;
49962;SDS011;36180;57.678;11.910;2024-01-15T09:41:16;4.00;;;0.75;;
49962;SDS011;36180;57.678;11.910;2024-01-15T09:43:43;0.80;;;0.60;;
49962;SDS011;36180;57.678;11.910;2024-01-15T09:46:11;0.95;;;0.60;;
49962;SDS011;36180;57.678;11.910;2024-01-15T09:48:38;2.28;;;0.80;;
49962;SDS011;36180;57.678;11.910;2024-01-15T09:51:07;1.75;;;0.57;;
49962;SDS011;36180;57.678;11.910;2024-01-15T09:53:34;2.42;;;0.40;;
49962;SDS011;36180;57.678;11.910;2024-01-15T09:56:03;2.45;;;0.70;;
49962;SDS011;36180;57.678;11.910;2024-01-15T09:58:30;2.53;;;0.60;;
49962;SDS011;36180;57.678;11.910;2024-01-15T10:00:58;3.92;;;0.80;;
49962;SDS011;36180;57.678;11.910;2024-01-15T10:03:26;2.35;;;0.60;;
49962;SDS011;36180;57.678;11.910;2024-01-15T10:05:53;1.52;;;0.50;;
49962;SDS011;36180;57.678;11.910;2024-01-15T10:08:22;0.82;;;0.50;;
49962;SDS011;36180;57.678;11.910;2024-01-15T10:10:50;0.93;;;0.70;;
49962;SDS011;36180;57.678;11.910;2024-01-15T10:13:17;2.95;;;0.60;;
49962;SDS011;36180;57.678;11.910;2024-01-15T10:15:45;2.97;;;0.60;;
49962;SDS011;36180;57.678;11.910;2024-01-15T10:18:13;3.90;;;0.70;;
49962;SDS011;36180;57.678;11.910;2024-01-15T10:20:40;2.80;;;0.98;;
49962;SDS011;36180;57.678;11.910;2024-01-15T10:23:07;1.48;;;0.47;;
49962;SDS011;36180;57.678;11.910;2024-01-15T10:25:36;1.83;;;0.50;;
49962;SDS011;36180;57.678;11.910;2024-01-15T10:28:03;1.30;;;0.90;;
49962;SDS011;36180;57.678;11.910;2024-01-15T10:30:32;0.82;;;0.60;;
49962;SDS011;36180;57.678;11.910;2024-01-15T10:33:00;1.38;;;0.45;;
49962;SDS011;36180;57.678;11.910;2024-01-15T10:35:29;1.17;;;0.55;;
49962;SDS011;36180;57.678;11.910;2024-01-15T10:37:56;1.15;;;0.50;;
49962;SDS011;36180;57.678;11.910;2024-01-15T10:40:23;2.17;;;1.00;;
49962;SDS011;36180;57.678;11.910;2024-01-15T10:42:51;2.08;;;0.50;;
49962;SDS011;36180;57.678;11.910;2024-01-15T10:45:18;1.70;;;0.60;;
49962;SDS011;36180;57.678;11.910;2024-01-15T10:47:45;1.70;;;0.90;;
49962;SDS011;36180;57.678;11.910;2024-01-15T10:50:13;3.20;;;1.70;;
49962;SDS011;36180;57.678;11.910;2024-01-15T10:52:41;2.58;;;0.68;;
49962;SDS011;36180;57.678;11.910;2024-01-15T10:55:09;2.65;;;0.90;;
49962;SDS011;36180;57.678;11.910;2024-01-15T10:57:37;1.27;;;0.50;;
49962;SDS011;36180;57.678;11.910;2024-01-15T11:00:06;1.90;;;0.68;;
49962;SDS011;36180;57.678;11.910;2024-01-15T11:02:40;1.17;;;0.50;;
49962;SDS011;36180;57.678;11.910;2024-01-15T11:05:07;1.02;;;0.47;;
49962;SDS011;36180;57.678;11.910;2024-01-15T11:07:34;4.97;;;0.60;;
49962;SDS011;36180;57.678;11.910;2024-01-15T11:10:02;2.80;;;0.60;;
49962;SDS011;36180;57.678;11.910;2024-01-15T11:12:30;1.20;;;0.63;;
49962;SDS011;36180;57.678;11.910;2024-01-15T11:15:01;1.02;;;0.60;;
49962;SDS011;36180;57.678;11.910;2024-01-15T11:17:31;2.55;;;0.73;;
49962;SDS011;36180;57.678;11.910;2024-01-15T11:20:26;0.80;;;0.70;;
49962;SDS011;36180;57.678;11.910;2024-01-15T11:22:53;1.00;;;0.50;;
49962;SDS011;36180;57.678;11.910;2024-01-15T11:25:22;1.05;;;0.50;;
49962;SDS011;36180;57.678;11.910;2024-01-15T11:27:50;2.00;;;0.60;;
49962;SDS011;36180;57.678;11.910;2024-01-15T11:30:18;1.80;;;0.60;;
49962;SDS011;36180;57.678;11.910;2024-01-15T11:32:45;4.55;;;0.65;;
49962;SDS011;36180;57.678;11.910;2024-01-15T11:35:14;1.90;;;0.50;;
49962;SDS011;36180;57.678;11.910;2024-01-15T11:37:57;2.92;;;0.50;;
49962;SDS011;36180;57.678;11.910;2024-01-15T11:43:03;5.03;;;1.05;;
49962;SDS011;36180;57.678;11.910;2024-01-15T11:45:30;3.22;;;0.90;;
49962;SDS011;36180;57.678;11.910;2024-01-15T11:48:09;1.48;;;0.80;;
49962;SDS011;36180;57.678;11.910;2024-01-15T11:50:39;2.50;;;0.70;;
49962;SDS011;36180;57.678;11.910;2024-01-15T11:53:10;1.48;;;0.70;;
49962;SDS011;36180;57.678;11.910;2024-01-15T11:55:43;1.65;;;0.75;;
49962;SDS011;36180;57.678;11.910;2024-01-15T11:58:11;4.20;;;0.90;;
49962;SDS011;36180;57.678;11.910;2024-01-15T12:00:42;1.92;;;1.08;;
49962;SDS011;36180;57.678;11.910;2024-01-15T12:03:10;2.58;;;0.73;;
49962;SDS011;36180;57.678;11.910;2024-01-15T12:05:38;2.90;;;0.77;;
49962;SDS011;36180;57.678;11.910;2024-01-15T12:08:07;1.23;;;0.70;;
49962;SDS011;36180;57.678;11.910;2024-01-15T12:10:36;3.95;;;1.00;;
49962;SDS011;36180;57.678;11.910;2024-01-15T12:13:04;3.42;;;0.82;;
49962;SDS011;36180;57.678;11.910;2024-01-15T12:15:32;1.83;;;0.60;;
49962;SDS011;36180;57.678;11.910;2024-01-15T12:18:00;1.15;;;0.70;;
49962;SDS011;36180;57.678;11.910;2024-01-15T12:20:28;2.50;;;0.50;;
49962;SDS011;36180;57.678;11.910;2024-01-15T12:22:57;3.03;;;0.68;;
49962;SDS011;36180;57.678;11.910;2024-01-15T12:25:24;1.42;;;0.70;;
49962;SDS011;36180;57.678;11.910;2024-01-15T12:27:53;2.42;;;0.60;;
49962;SDS011;36180;57.678;11.910;2024-01-15T12:30:20;2.55;;;0.68;;
49962;SDS011;36180;57.678;11.910;2024-01-15T12:32:47;1.33;;;0.50;;
49962;SDS011;36180;57.678;11.910;2024-01-15T12:35:14;1.52;;;0.60;;
49962;SDS011;36180;57.678;11.910;2024-01-15T12:37:42;0.70;;;0.52;;
49962;SDS011;36180;57.678;11.910;2024-01-15T12:40:10;0.98;;;0.60;;
49962;SDS011;36180;57.678;11.910;2024-01-15T12:42:39;1.83;;;0.70;;
49962;SDS011;36180;57.678;11.910;2024-01-15T12:45:06;0.82;;;0.60;;
49962;SDS011;36180;57.678;11.910;2024-01-15T12:47:34;0.90;;;0.55;;
49962;SDS011;36180;57.678;11.910;2024-01-15T12:50:01;2.08;;;0.70;;
49962;SDS011;36180;57.678;11.910;2024-01-15T12:52:28;0.95;;;0.75;;
49962;SDS011;36180;57.678;11.910;2024-01-15T12:54:55;1.25;;;0.82;;
49962;SDS011;36180;57.678;11.910;2024-01-15T12:57:24;2.92;;;0.90;;
49962;SDS011;36180;57.678;11.910;2024-01-15T12:59:51;2.00;;;0.70;;
49962;SDS011;36180;57.678;11.910;2024-01-15T13:02:20;1.17;;;0.50;;
49962;SDS011;36180;57.678;11.910;2024-01-15T13:04:48;0.90;;;0.60;;
49962;SDS011;36180;57.678;11.910;2024-01-15T13:07:15;0.45;;;0.40;;
49962;SDS011;36180;57.678;11.910;2024-01-15T13:09:42;1.27;;;0.60;;
49962;SDS011;36180;57.678;11.910;2024-01-15T13:12:09;0.63;;;0.60;;
49962;SDS011;36180;57.678;11.910;2024-01-15T13:14:38;2.20;;;0.82;;
49962;SDS011;36180;57.678;11.910;2024-01-15T13:17:06;5.05;;;2.22;;
49962;SDS011;36180;57.678;11.910;2024-01-15T13:19:33;2.70;;;2.13;;
49962;SDS011;36180;57.678;11.910;2024-01-15T13:22:00;3.63;;;1.15;;
49962;SDS011;36180;57.678;11.910;2024-01-15T13:24:28;2.50;;;0.88;;
49962;SDS011;36180;57.678;11.910;2024-01-15T13:26:56;2.53;;;0.90;;
49962;SDS011;36180;57.678;11.910;2024-01-15T13:29:23;1.58;;;1.02;;
49962;SDS011;36180;57.678;11.910;2024-01-15T13:31:51;1.25;;;0.60;;
49962;SDS011;36180;57.678;11.910;2024-01-15T13:34:18;2.33;;;0.80;;
49962;SDS011;36180;57.678;11.910;2024-01-15T13:36:45;0.75;;;0.65;;
49962;SDS011;36180;57.678;11.910;2024-01-15T13:39:12;3.50;;;0.70;;
49962;SDS011;36180;57.678;11.910;2024-01-15T13:41:39;2.15;;;0.60;;
49962;SDS011;36180;57.678;11.910;2024-01-15T13:44:06;0.60;;;0.40;;
49962;SDS011;36180;57.678;11.910;2024-01-15T13:46:34;2.45;;;1.33;;
49962;SDS011;36180;57.678;11.910;2024-01-15T13:49:04;3.60;;;0.88;;
49962;SDS011;36180;57.678;11.910;2024-01-15T13:51:32;1.08;;;0.70;;
49962;SDS011;36180;57.678;11.910;2024-01-15T13:54:00;1.55;;;1.35;;
49962;SDS011;36180;57.678;11.910;2024-01-15T13:56:29;3.40;;;1.35;;
49962;SDS011;36180;57.678;11.910;2024-01-15T13:58:57;2.13;;;0.82;;
49962;SDS011;36180;57.678;11.910;2024-01-15T14:01:24;2.67;;;1.30;;
49962;SDS011;36180;57.678;11.910;2024-01-15T14:03:52;2.92;;;1.25;;
49962;SDS011;36180;57.678;11.910;2024-01-15T14:06:20;1.70;;;0.90;;
49962;SDS011;36180;57.678;11.910;2024-01-15T14:08:47;2.42;;;0.88;;
49962;SDS011;36180;57.678;11.910;2024-01-15T14:11:14;4.85;;;1.85;;
49962;SDS011;36180;57.678;11.910;2024-01-15T14:13:41;2.67;;;1.48;;
49962;SDS011;36180;57.678;11.910;2024-01-15T14:16:08;1.80;;;0.90;;
49962;SDS011;36180;57.678;11.910;2024-01-15T14:18:37;1.67;;;0.77;;
49962;SDS011;36180;57.678;11.910;2024-01-15T14:21:04;2.25;;;0.52;;
49962;SDS011;36180;57.678;11.910;2024-01-15T14:23:32;4.25;;;1.75;;
49962;SDS011;36180;57.678;11.910;2024-01-15T14:25:59;2.65;;;0.95;;
49962;SDS011;36180;57.678;11.910;2024-01-15T14:28:26;2.65;;;0.82;;
49962;SDS011;36180;57.678;11.910;2024-01-15T14:30:53;3.03;;;1.00;;
49962;SDS011;36180;57.678;11.910;2024-01-15T14:33:23;1.52;;;0.73;;
49962;SDS011;36180;57.678;11.910;2024-01-15T14:35:50;3.63;;;1.60;;
49962;SDS011;36180;57.678;11.910;2024-01-15T14:38:17;4.10;;;1.52;;
49962;SDS011;36180;57.678;11.910;2024-01-15T14:40:45;4.22;;;1.50;;